sensor_id;sensor_type;location;lat;lon;timestamp;P1;durP1;ratioP1;P2;durP2;ratioP2
30519;SDS011;17300;50.374;8.006;2024-03-02T00:01:31;3.90;;;3.50;;
30519;SDS011;17300;50.374;8.006;2024-03-02T00:03:57;3.73;;;3.43;;
30519;SDS011;17300;50.374;8.006;2024-03-02T00:06:25;4.80;;;3.63;;
30519;SDS011;17300;50.374;8.006;2024-03-02T00:08:55;3.70;;;3.40;;
30519;SDS011;17300;50.374;8.006;2024-03-02T00:11:24;3.60;;;3.30;;
30519;SDS011;17300;50.374;8.006;2024-03-02T00:13:52;4.03;;;3.60;;
30519;SDS011;17300;50.374;8.006;2024-03-02T00:16:19;3.50;;;3.20;;
30519;SDS011;17300;50.374;8.006;2024-03-02T00:18:46;3.70;;;3.40;;
30519;SDS011;17300;50.374;8.006;2024-03-02T00:21:12;3.80;;;3.50;;
30519;SDS011;17300;50.374;8.006;2024-03-02T00:23:42;4.10;;;3.70;;
30519;SDS011;17300;50.374;8.006;2024-03-02T00:26:09;4.07;;;3.67;;
30519;SDS011;17300;50.374;8.006;2024-03-02T00:28:38;3.70;;;3.20;;
30519;SDS011;17300;50.374;8.006;2024-03-02T00:31:06;4.50;;;3.70;;
30519;SDS011;17300;50.374;8.006;2024-03-02T00:33:37;3.63;;;3.33;;
30519;SDS011;17300;50.374;8.006;2024-03-02T00:36:07;4.37;;;3.97;;
30519;SDS011;17300;50.374;8.006;2024-03-02T00:38:44;4.63;;;3.63;;
30519;SDS011;17300;50.374;8.006;2024-03-02T00:41:15;4.00;;;3.60;;
30519;SDS011;17300;50.374;8.006;2024-03-02T00:43:45;4.20;;;3.80;;
30519;SDS011;17300;50.374;8.006;2024-03-02T00:46:16;4.27;;;3.97;;
30519;SDS011;17300;50.374;8.006;2024-03-02T00:48:48;5.00;;;4.17;;
30519;SDS011;17300;50.374;8.006;2024-03-02T00:51:19;3.83;;;3.53;;
30519;SDS011;17300;50.374;8.006;2024-03-02T00:53:47;3.90;;;3.60;;
30519;SDS011;17300;50.374;8.006;2024-03-02T00:56:14;4.70;;;4.30;;
30519;SDS011;17300;50.374;8.006;2024-03-02T00:58:41;4.90;;;4.10;;
30519;SDS011;17300;50.374;8.006;2024-03-02T01:01:08;5.77;;;4.67;;
30519;SDS011;17300;50.374;8.006;2024-03-02T01:03:35;4.60;;;4.20;;
30519;SDS011;17300;50.374;8.006;2024-03-02T01:06:03;4.50;;;4.00;;
30519;SDS011;17300;50.374;8.006;2024-03-02T01:08:32;5.17;;;4.67;;
30519;SDS011;17300;50.374;8.006;2024-03-02T01:11:00;5.27;;;4.77;;
30519;SDS011;17300;50.374;8.006;2024-03-02T01:13:27;5.37;;;4.87;;
30519;SDS011;17300;50.374;8.006;2024-03-02T01:15:54;5.27;;;4.73;;
30519;SDS011;17300;50.374;8.006;2024-03-02T01:18:21;5.77;;;5.27;;
30519;SDS011;17300;50.374;8.006;2024-03-02T01:20:48;5.33;;;4.83;;
30519;SDS011;17300;50.374;8.006;2024-03-02T01:23:16;5.00;;;4.50;;
30519;SDS011;17300;50.374;8.006;2024-03-02T01:25:44;5.07;;;4.57;;
30519;SDS011;17300;50.374;8.006;2024-03-02T01:28:12;5.80;;;5.00;;
30519;SDS011;17300;50.374;8.006;2024-03-02T01:30:39;4.97;;;4.57;;
30519;SDS011;17300;50.374;8.006;2024-03-02T01:33:05;5.43;;;4.93;;
30519;SDS011;17300;50.374;8.006;2024-03-02T01:35:32;5.07;;;4.53;;
30519;SDS011;17300;50.374;8.006;2024-03-02T01:38:00;5.47;;;4.97;;
30519;SDS011;17300;50.374;8.006;2024-03-02T01:40:27;5.77;;;5.17;;
30519;SDS011;17300;50.374;8.006;2024-03-02T01:42:54;5.63;;;4.87;;
30519;SDS011;17300;50.374;8.006;2024-03-02T01:45:24;5.30;;;4.80;;
30519;SDS011;17300;50.374;8.006;2024-03-02T01:47:51;6.17;;;4.80;;
30519;SDS011;17300;50.374;8.006;2024-03-02T01:50:24;6.30;;;5.70;;
30519;SDS011;17300;50.374;8.006;2024-03-02T01:52:51;5.87;;;5.27;;
30519;SDS011;17300;50.374;8.006;2024-03-02T01:55:18;5.40;;;4.90;;
30519;SDS011;17300;50.374;8.006;2024-03-02T01:57:45;5.83;;;5.33;;
30519;SDS011;17300;50.374;8.006;2024-03-02T02:00:13;5.43;;;4.93;;
30519;SDS011;17300;50.374;8.006;2024-03-02T02:02:41;6.10;;;5.50;;
30519;SDS011;17300;50.374;8.006;2024-03-02T02:05:08;6.33;;;5.47;;
30519;SDS011;17300;50.374;8.006;2024-03-02T02:07:35;6.27;;;5.67;;
30519;SDS011;17300;50.374;8.006;2024-03-02T02:10:02;6.37;;;5.70;;
30519;SDS011;17300;50.374;8.006;2024-03-02T02:12:29;6.50;;;5.87;;
30519;SDS011;17300;50.374;8.006;2024-03-02T02:14:55;6.60;;;5.80;;
30519;SDS011;17300;50.374;8.006;2024-03-02T02:17:22;6.17;;;5.57;;
30519;SDS011;17300;50.374;8.006;2024-03-02T02:19:50;6.67;;;5.87;;
30519;SDS011;17300;50.374;8.006;2024-03-02T02:22:18;6.80;;;6.10;;
30519;SDS011;17300;50.374;8.006;2024-03-02T02:24:45;6.73;;;6.03;;
30519;SDS011;17300;50.374;8.006;2024-03-02T02:27:12;6.43;;;5.83;;
30519;SDS011;17300;50.374;8.006;2024-03-02T02:29:40;6.80;;;6.10;;
30519;SDS011;17300;50.374;8.006;2024-03-02T02:32:07;6.17;;;5.60;;
30519;SDS011;17300;50.374;8.006;2024-03-02T02:34:33;6.60;;;6.00;;
30519;SDS011;17300;50.374;8.006;2024-03-02T02:37:00;7.17;;;6.47;;
30519;SDS011;17300;50.374;8.006;2024-03-02T02:39:28;6.73;;;5.73;;
30519;SDS011;17300;50.374;8.006;2024-03-02T02:41:55;6.97;;;6.27;;
30519;SDS011;17300;50.374;8.006;2024-03-02T02:44:22;6.80;;;6.10;;
30519;SDS011;17300;50.374;8.006;2024-03-02T02:46:49;6.13;;;5.53;;
30519;SDS011;17300;50.374;8.006;2024-03-02T02:49:15;6.77;;;6.07;;
30519;SDS011;17300;50.374;8.006;2024-03-02T02:51:42;7.20;;;6.50;;
30519;SDS011;17300;50.374;8.006;2024-03-02T02:54:09;7.03;;;6.33;;
30519;SDS011;17300;50.374;8.006;2024-03-02T02:56:37;6.77;;;6.10;;
30519;SDS011;17300;50.374;8.006;2024-03-02T02:59:03;7.33;;;6.23;;
30519;SDS011;17300;50.374;8.006;2024-03-02T03:01:30;6.83;;;6.17;;
30519;SDS011;17300;50.374;8.006;2024-03-02T03:03:56;6.37;;;5.77;;
30519;SDS011;17300;50.374;8.006;2024-03-02T03:06:23;6.57;;;5.67;;
30519;SDS011;17300;50.374;8.006;2024-03-02T03:08:50;5.97;;;5.37;;
30519;SDS011;17300;50.374;8.006;2024-03-02T03:11:16;6.63;;;6.03;;
30519;SDS011;17300;50.374;8.006;2024-03-02T03:13:44;6.53;;;5.50;;
30519;SDS011;17300;50.374;8.006;2024-03-02T03:16:11;6.87;;;6.17;;
30519;SDS011;17300;50.374;8.006;2024-03-02T03:18:38;6.57;;;5.60;;
30519;SDS011;17300;50.374;8.006;2024-03-02T03:21:04;6.17;;;5.57;;
30519;SDS011;17300;50.374;8.006;2024-03-02T03:23:32;5.80;;;5.17;;
30519;SDS011;17300;50.374;8.006;2024-03-02T03:25:58;5.37;;;4.87;;
30519;SDS011;17300;50.374;8.006;2024-03-02T03:28:25;6.00;;;5.30;;
30519;SDS011;17300;50.374;8.006;2024-03-02T03:30:53;6.13;;;5.53;;
30519;SDS011;17300;50.374;8.006;2024-03-02T03:33:20;6.10;;;5.50;;
30519;SDS011;17300;50.374;8.006;2024-03-02T03:35:47;6.07;;;5.47;;
30519;SDS011;17300;50.374;8.006;2024-03-02T03:38:13;5.80;;;5.23;;
30519;SDS011;17300;50.374;8.006;2024-03-02T03:40:40;6.80;;;5.10;;
30519;SDS011;17300;50.374;8.006;2024-03-02T03:43:07;5.80;;;5.20;;
30519;SDS011;17300;50.374;8.006;2024-03-02T03:45:33;6.00;;;5.40;;
30519;SDS011;17300;50.374;8.006;2024-03-02T03:48:01;5.50;;;5.00;;
30519;SDS011;17300;50.374;8.006;2024-03-02T03:50:28;6.00;;;5.40;;
30519;SDS011;17300;50.374;8.006;2024-03-02T03:52:55;5.83;;;5.23;;
30519;SDS011;17300;50.374;8.006;2024-03-02T03:55:22;6.17;;;5.57;;
30519;SDS011;17300;50.374;8.006;2024-03-02T03:57:48;6.23;;;5.63;;
30519;SDS011;17300;50.374;8.006;2024-03-02T04:00:15;5.50;;;5.00;;
30519;SDS011;17300;50.374;8.006;2024-03-02T04:02:42;6.03;;;5.43;;
30519;SDS011;17300;50.374;8.006;2024-03-02T04:05:10;6.17;;;5.57;;
30519;SDS011;17300;50.374;8.006;2024-03-02T04:07:36;5.43;;;4.90;;
30519;SDS011;17300;50.374;8.006;2024-03-02T04:10:08;5.47;;;4.97;;
30519;SDS011;17300;50.374;8.006;2024-03-02T04:12:35;5.50;;;4.93;;
30519;SDS011;17300;50.374;8.006;2024-03-02T04:15:03;5.60;;;5.10;;
30519;SDS011;17300;50.374;8.006;2024-03-02T04:17:31;5.57;;;4.97;;
30519;SDS011;17300;50.374;8.006;2024-03-02T04:20:00;5.30;;;4.80;;
30519;SDS011;17300;50.374;8.006;2024-03-02T04:22:30;5.70;;;5.10;;
30519;SDS011;17300;50.374;8.006;2024-03-02T04:25:00;5.20;;;4.70;;
30519;SDS011;17300;50.374;8.006;2024-03-02T04:27:29;5.03;;;4.53;;
30519;SDS011;17300;50.374;8.006;2024-03-02T04:29:56;5.33;;;4.83;;
30519;SDS011;17300;50.374;8.006;2024-03-02T04:32:23;5.43;;;4.77;;
30519;SDS011;17300;50.374;8.006;2024-03-02T04:34:49;5.00;;;4.50;;
30519;SDS011;17300;50.374;8.006;2024-03-02T04:37:16;4.97;;;4.47;;
30519;SDS011;17300;50.374;8.006;2024-03-02T04:39:44;5.07;;;4.57;;
30519;SDS011;17300;50.374;8.006;2024-03-02T04:42:11;5.00;;;4.50;;
30519;SDS011;17300;50.374;8.006;2024-03-02T04:44:37;5.87;;;5.30;;
30519;SDS011;17300;50.374;8.006;2024-03-02T04:47:04;5.13;;;4.63;;
30519;SDS011;17300;50.374;8.006;2024-03-02T04:49:31;5.00;;;4.50;;
30519;SDS011;17300;50.374;8.006;2024-03-02T04:51:58;5.03;;;4.53;;
30519;SDS011;17300;50.374;8.006;2024-03-02T04:54:24;5.37;;;4.87;;
30519;SDS011;17300;50.374;8.006;2024-03-02T04:56:52;5.33;;;4.83;;
30519;SDS011;17300;50.374;8.006;2024-03-02T04:59:19;6.23;;;4.67;;
30519;SDS011;17300;50.374;8.006;2024-03-02T05:01:46;5.33;;;4.83;;
30519;SDS011;17300;50.374;8.006;2024-03-02T05:04:13;5.13;;;4.63;;
30519;SDS011;17300;50.374;8.006;2024-03-02T05:06:40;5.00;;;4.50;;
30519;SDS011;17300;50.374;8.006;2024-03-02T05:09:07;4.80;;;4.30;;
30519;SDS011;17300;50.374;8.006;2024-03-02T05:11:34;5.20;;;4.70;;
30519;SDS011;17300;50.374;8.006;2024-03-02T05:14:22;5.20;;;4.70;;
30519;SDS011;17300;50.374;8.006;2024-03-02T05:16:48;4.90;;;4.50;;
30519;SDS011;17300;50.374;8.006;2024-03-02T05:19:14;4.77;;;4.37;;
30519;SDS011;17300;50.374;8.006;2024-03-02T05:21:41;5.27;;;4.60;;
30519;SDS011;17300;50.374;8.006;2024-03-02T05:24:08;4.97;;;4.47;;
30519;SDS011;17300;50.374;8.006;2024-03-02T05:26:35;4.80;;;4.37;;
30519;SDS011;17300;50.374;8.006;2024-03-02T05:29:02;5.10;;;4.63;;
30519;SDS011;17300;50.374;8.006;2024-03-02T05:31:30;5.10;;;4.60;;
30519;SDS011;17300;50.374;8.006;2024-03-02T05:33:56;5.00;;;4.50;;
30519;SDS011;17300;50.374;8.006;2024-03-02T05:36:24;5.57;;;4.93;;
30519;SDS011;17300;50.374;8.006;2024-03-02T05:38:50;4.80;;;4.30;;
30519;SDS011;17300;50.374;8.006;2024-03-02T05:41:17;5.40;;;4.90;;
30519;SDS011;17300;50.374;8.006;2024-03-02T05:43:44;5.73;;;4.73;;
30519;SDS011;17300;50.374;8.006;2024-03-02T05:46:10;4.93;;;4.50;;
30519;SDS011;17300;50.374;8.006;2024-03-02T05:48:38;5.10;;;4.60;;
30519;SDS011;17300;50.374;8.006;2024-03-02T05:51:05;5.43;;;4.70;;
30519;SDS011;17300;50.374;8.006;2024-03-02T05:53:31;5.13;;;4.63;;
30519;SDS011;17300;50.374;8.006;2024-03-02T05:55:58;5.07;;;4.57;;
30519;SDS011;17300;50.374;8.006;2024-03-02T05:58:25;4.80;;;4.30;;
30519;SDS011;17300;50.374;8.006;2024-03-02T06:01:02;5.60;;;4.80;;
30519;SDS011;17300;50.374;8.006;2024-03-02T06:03:29;5.30;;;4.80;;
30519;SDS011;17300;50.374;8.006;2024-03-02T06:05:57;5.03;;;4.53;;
30519;SDS011;17300;50.374;8.006;2024-03-02T06:08:24;5.77;;;4.80;;
30519;SDS011;17300;50.374;8.006;2024-03-02T06:10:51;6.00;;;5.23;;
30519;SDS011;17300;50.374;8.006;2024-03-02T06:13:18;6.03;;;4.97;;
30519;SDS011;17300;50.374;8.006;2024-03-02T06:15:44;5.70;;;4.93;;
30519;SDS011;17300;50.374;8.006;2024-03-02T06:18:11;5.07;;;4.57;;
30519;SDS011;17300;50.374;8.006;2024-03-02T06:20:37;4.90;;;4.40;;
30519;SDS011;17300;50.374;8.006;2024-03-02T06:23:05;5.57;;;5.03;;
30519;SDS011;17300;50.374;8.006;2024-03-02T06:25:32;5.30;;;4.80;;
30519;SDS011;17300;50.374;8.006;2024-03-02T06:27:59;5.40;;;4.90;;
30519;SDS011;17300;50.374;8.006;2024-03-02T06:30:25;5.07;;;4.63;;
30519;SDS011;17300;50.374;8.006;2024-03-02T06:32:52;5.03;;;4.60;;
30519;SDS011;17300;50.374;8.006;2024-03-02T06:35:19;5.10;;;4.63;;
30519;SDS011;17300;50.374;8.006;2024-03-02T06:37:45;5.07;;;4.67;;
30519;SDS011;17300;50.374;8.006;2024-03-02T06:40:12;5.50;;;4.83;;
30519;SDS011;17300;50.374;8.006;2024-03-02T06:42:39;5.20;;;4.60;;
30519;SDS011;17300;50.374;8.006;2024-03-02T06:45:06;5.77;;;5.17;;
30519;SDS011;17300;50.374;8.006;2024-03-02T06:47:33;5.87;;;5.27;;
30519;SDS011;17300;50.374;8.006;2024-03-02T06:49:59;5.00;;;4.50;;
30519;SDS011;17300;50.374;8.006;2024-03-02T06:52:26;5.17;;;4.37;;
30519;SDS011;17300;50.374;8.006;2024-03-02T06:54:53;5.03;;;4.53;;
30519;SDS011;17300;50.374;8.006;2024-03-02T06:57:21;5.30;;;4.70;;
30519;SDS011;17300;50.374;8.006;2024-03-02T06:59:49;4.53;;;4.13;;
30519;SDS011;17300;50.374;8.006;2024-03-02T07:02:18;5.63;;;5.00;;
30519;SDS011;17300;50.374;8.006;2024-03-02T07:04:45;4.83;;;4.37;;
30519;SDS011;17300;50.374;8.006;2024-03-02T07:07:12;5.17;;;4.77;;
30519;SDS011;17300;50.374;8.006;2024-03-02T07:09:39;5.30;;;4.80;;
30519;SDS011;17300;50.374;8.006;2024-03-02T07:12:06;4.93;;;4.43;;
30519;SDS011;17300;50.374;8.006;2024-03-02T07:14:34;4.90;;;4.50;;
30519;SDS011;17300;50.374;8.006;2024-03-02T07:17:18;4.87;;;4.37;;
30519;SDS011;17300;50.374;8.006;2024-03-02T07:19:45;4.60;;;4.20;;
30519;SDS011;17300;50.374;8.006;2024-03-02T07:22:12;4.57;;;4.17;;
30519;SDS011;17300;50.374;8.006;2024-03-02T07:24:39;4.30;;;3.90;;
30519;SDS011;17300;50.374;8.006;2024-03-02T07:27:07;4.47;;;4.07;;
30519;SDS011;17300;50.374;8.006;2024-03-02T07:29:35;4.37;;;3.97;;
30519;SDS011;17300;50.374;8.006;2024-03-02T07:32:02;4.90;;;4.27;;
30519;SDS011;17300;50.374;8.006;2024-03-02T07:34:29;4.60;;;4.20;;
30519;SDS011;17300;50.374;8.006;2024-03-02T07:36:55;4.50;;;4.10;;
30519;SDS011;17300;50.374;8.006;2024-03-02T07:39:22;4.40;;;4.00;;
30519;SDS011;17300;50.374;8.006;2024-03-02T07:41:49;4.37;;;3.97;;
30519;SDS011;17300;50.374;8.006;2024-03-02T07:44:17;4.37;;;3.97;;
30519;SDS011;17300;50.374;8.006;2024-03-02T07:46:45;4.07;;;3.73;;
30519;SDS011;17300;50.374;8.006;2024-03-02T07:49:14;3.90;;;3.53;;
30519;SDS011;17300;50.374;8.006;2024-03-02T07:51:41;4.33;;;3.87;;
30519;SDS011;17300;50.374;8.006;2024-03-02T07:54:08;4.13;;;3.73;;
30519;SDS011;17300;50.374;8.006;2024-03-02T07:56:35;4.50;;;4.10;;
30519;SDS011;17300;50.374;8.006;2024-03-02T07:59:02;3.60;;;3.30;;
30519;SDS011;17300;50.374;8.006;2024-03-02T08:01:29;4.90;;;4.40;;
30519;SDS011;17300;50.374;8.006;2024-03-02T08:03:58;4.50;;;4.10;;
30519;SDS011;17300;50.374;8.006;2024-03-02T08:06:25;4.30;;;3.90;;
30519;SDS011;17300;50.374;8.006;2024-03-02T08:08:52;4.07;;;3.67;;
30519;SDS011;17300;50.374;8.006;2024-03-02T08:11:20;4.23;;;3.87;;
30519;SDS011;17300;50.374;8.006;2024-03-02T08:13:47;4.53;;;4.13;;
30519;SDS011;17300;50.374;8.006;2024-03-02T08:16:13;3.97;;;3.67;;
30519;SDS011;17300;50.374;8.006;2024-03-02T08:18:40;4.57;;;3.77;;
30519;SDS011;17300;50.374;8.006;2024-03-02T08:21:09;5.33;;;3.43;;
30519;SDS011;17300;50.374;8.006;2024-03-02T08:23:35;3.90;;;3.60;;
30519;SDS011;17300;50.374;8.006;2024-03-02T08:26:03;5.13;;;4.00;;
30519;SDS011;17300;50.374;8.006;2024-03-02T08:28:30;4.37;;;3.73;;
30519;SDS011;17300;50.374;8.006;2024-03-02T08:30:57;3.70;;;3.40;;
30519;SDS011;17300;50.374;8.006;2024-03-02T08:33:24;4.07;;;3.67;;
30519;SDS011;17300;50.374;8.006;2024-03-02T08:35:50;3.53;;;3.23;;
30519;SDS011;17300;50.374;8.006;2024-03-02T08:38:18;4.03;;;3.53;;
30519;SDS011;17300;50.374;8.006;2024-03-02T08:40:45;3.90;;;3.47;;
30519;SDS011;17300;50.374;8.006;2024-03-02T08:43:12;4.30;;;3.77;;
30519;SDS011;17300;50.374;8.006;2024-03-02T08:45:39;3.93;;;3.63;;
30519;SDS011;17300;50.374;8.006;2024-03-02T08:48:07;3.93;;;3.53;;
30519;SDS011;17300;50.374;8.006;2024-03-02T08:50:34;3.73;;;3.43;;
30519;SDS011;17300;50.374;8.006;2024-03-02T08:53:01;3.83;;;3.27;;
30519;SDS011;17300;50.374;8.006;2024-03-02T08:55:30;3.50;;;3.20;;
30519;SDS011;17300;50.374;8.006;2024-03-02T08:57:57;3.60;;;3.30;;
30519;SDS011;17300;50.374;8.006;2024-03-02T09:00:24;3.77;;;3.47;;
30519;SDS011;17300;50.374;8.006;2024-03-02T09:02:51;3.20;;;2.90;;
30519;SDS011;17300;50.374;8.006;2024-03-02T09:05:18;3.50;;;3.20;;
30519;SDS011;17300;50.374;8.006;2024-03-02T09:07:44;3.27;;;3.00;;
30519;SDS011;17300;50.374;8.006;2024-03-02T09:10:11;3.23;;;2.93;;
30519;SDS011;17300;50.374;8.006;2024-03-02T09:12:39;2.97;;;2.77;;
30519;SDS011;17300;50.374;8.006;2024-03-02T09:15:06;3.20;;;2.90;;
30519;SDS011;17300;50.374;8.006;2024-03-02T09:17:33;3.20;;;2.90;;
30519;SDS011;17300;50.374;8.006;2024-03-02T09:20:00;2.50;;;2.30;;
30519;SDS011;17300;50.374;8.006;2024-03-02T09:22:29;2.73;;;2.53;;
30519;SDS011;17300;50.374;8.006;2024-03-02T09:24:55;3.57;;;3.00;;
30519;SDS011;17300;50.374;8.006;2024-03-02T09:27:22;3.07;;;2.53;;
30519;SDS011;17300;50.374;8.006;2024-03-02T09:29:50;3.37;;;3.07;;
30519;SDS011;17300;50.374;8.006;2024-03-02T09:32:17;2.90;;;2.70;;
30519;SDS011;17300;50.374;8.006;2024-03-02T09:34:43;2.77;;;2.57;;
30519;SDS011;17300;50.374;8.006;2024-03-02T09:37:10;2.80;;;2.60;;
30519;SDS011;17300;50.374;8.006;2024-03-02T09:39:37;2.70;;;2.50;;
30519;SDS011;17300;50.374;8.006;2024-03-02T09:42:03;2.83;;;2.40;;
30519;SDS011;17300;50.374;8.006;2024-03-02T09:44:31;2.60;;;2.40;;
30519;SDS011;17300;50.374;8.006;2024-03-02T09:47:01;3.30;;;2.47;;
30519;SDS011;17300;50.374;8.006;2024-03-02T09:49:27;2.50;;;2.30;;
30519;SDS011;17300;50.374;8.006;2024-03-02T09:51:54;2.60;;;2.40;;
30519;SDS011;17300;50.374;8.006;2024-03-02T09:54:21;3.97;;;2.83;;
30519;SDS011;17300;50.374;8.006;2024-03-02T09:56:49;3.27;;;3.00;;
30519;SDS011;17300;50.374;8.006;2024-03-02T09:59:16;2.70;;;2.50;;
30519;SDS011;17300;50.374;8.006;2024-03-02T10:01:55;2.90;;;2.60;;
30519;SDS011;17300;50.374;8.006;2024-03-02T10:04:24;2.57;;;2.37;;
30519;SDS011;17300;50.374;8.006;2024-03-02T10:06:55;2.50;;;2.30;;
30519;SDS011;17300;50.374;8.006;2024-03-02T10:09:37;2.50;;;2.30;;
30519;SDS011;17300;50.374;8.006;2024-03-02T10:12:04;2.47;;;2.10;;
30519;SDS011;17300;50.374;8.006;2024-03-02T10:14:31;2.50;;;2.30;;
30519;SDS011;17300;50.374;8.006;2024-03-02T10:17:01;3.20;;;2.63;;
30519;SDS011;17300;50.374;8.006;2024-03-02T10:19:30;2.80;;;2.60;;
30519;SDS011;17300;50.374;8.006;2024-03-02T10:21:58;2.70;;;2.50;;
30519;SDS011;17300;50.374;8.006;2024-03-02T10:24:25;2.47;;;2.00;;
30519;SDS011;17300;50.374;8.006;2024-03-02T10:26:52;2.17;;;1.97;;
30519;SDS011;17300;50.374;8.006;2024-03-02T10:29:19;2.33;;;2.10;;
30519;SDS011;17300;50.374;8.006;2024-03-02T10:31:46;2.30;;;2.17;;
30519;SDS011;17300;50.374;8.006;2024-03-02T10:34:13;2.40;;;2.20;;
30519;SDS011;17300;50.374;8.006;2024-03-02T10:36:43;2.03;;;1.92;;
30519;SDS011;17300;50.374;8.006;2024-03-02T10:39:11;1.95;;;1.85;;
30519;SDS011;17300;50.374;8.006;2024-03-02T10:41:40;3.65;;;2.20;;
30519;SDS011;17300;50.374;8.006;2024-03-02T10:44:07;1.80;;;1.70;;
30519;SDS011;17300;50.374;8.006;2024-03-02T10:46:35;1.80;;;1.70;;
30519;SDS011;17300;50.374;8.006;2024-03-02T10:49:03;2.20;;;2.00;;
30519;SDS011;17300;50.374;8.006;2024-03-02T10:51:31;2.00;;;1.90;;
30519;SDS011;17300;50.374;8.006;2024-03-02T10:54:00;1.83;;;1.73;;
30519;SDS011;17300;50.374;8.006;2024-03-02T10:56:28;1.65;;;1.55;;
30519;SDS011;17300;50.374;8.006;2024-03-02T10:59:00;2.40;;;2.20;;
30519;SDS011;17300;50.374;8.006;2024-03-02T11:01:29;1.88;;;1.75;;
30519;SDS011;17300;50.374;8.006;2024-03-02T11:03:58;2.22;;;1.58;;
30519;SDS011;17300;50.374;8.006;2024-03-02T11:06:28;2.15;;;1.95;;
30519;SDS011;17300;50.374;8.006;2024-03-02T11:08:58;2.17;;;2.00;;
30519;SDS011;17300;50.374;8.006;2024-03-02T11:11:33;1.90;;;1.80;;
30519;SDS011;17300;50.374;8.006;2024-03-02T11:14:04;1.67;;;1.58;;
30519;SDS011;17300;50.374;8.006;2024-03-02T11:16:34;1.65;;;1.55;;
30519;SDS011;17300;50.374;8.006;2024-03-02T11:19:03;1.65;;;1.55;;
30519;SDS011;17300;50.374;8.006;2024-03-02T11:21:31;1.80;;;1.70;;
30519;SDS011;17300;50.374;8.006;2024-03-02T11:23:59;1.73;;;1.63;;
30519;SDS011;17300;50.374;8.006;2024-03-02T11:26:28;1.77;;;1.60;;
30519;SDS011;17300;50.374;8.006;2024-03-02T11:29:04;1.67;;;1.58;;
30519;SDS011;17300;50.374;8.006;2024-03-02T11:34:28;1.60;;;1.50;;
30519;SDS011;17300;50.374;8.006;2024-03-02T11:36:55;1.70;;;1.60;;
30519;SDS011;17300;50.374;8.006;2024-03-02T11:39:22;1.73;;;1.63;;
30519;SDS011;17300;50.374;8.006;2024-03-02T11:41:50;1.83;;;1.73;;
30519;SDS011;17300;50.374;8.006;2024-03-02T11:44:17;2.13;;;2.03;;
30519;SDS011;17300;50.374;8.006;2024-03-02T11:46:44;1.65;;;1.55;;
30519;SDS011;17300;50.374;8.006;2024-03-02T11:49:13;2.53;;;1.80;;
30519;SDS011;17300;50.374;8.006;2024-03-02T11:51:49;2.08;;;1.88;;
30519;SDS011;17300;50.374;8.006;2024-03-02T11:54:19;1.77;;;1.50;;
30519;SDS011;17300;50.374;8.006;2024-03-02T11:56:46;1.48;;;1.38;;
30519;SDS011;17300;50.374;8.006;2024-03-02T11:59:14;1.70;;;1.60;;
30519;SDS011;17300;50.374;8.006;2024-03-02T12:01:41;1.60;;;1.50;;
30519;SDS011;17300;50.374;8.006;2024-03-02T12:04:08;1.42;;;1.27;;
30519;SDS011;17300;50.374;8.006;2024-03-02T12:06:36;1.40;;;1.30;;
30519;SDS011;17300;50.374;8.006;2024-03-02T12:09:04;1.20;;;1.10;;
30519;SDS011;17300;50.374;8.006;2024-03-02T12:11:36;1.30;;;1.20;;
30519;SDS011;17300;50.374;8.006;2024-03-02T12:14:03;1.48;;;1.38;;
30519;SDS011;17300;50.374;8.006;2024-03-02T12:16:31;1.30;;;1.20;;
30519;SDS011;17300;50.374;8.006;2024-03-02T12:18:57;0.95;;;0.95;;
30519;SDS011;17300;50.374;8.006;2024-03-02T12:21:24;1.40;;;1.20;;
30519;SDS011;17300;50.374;8.006;2024-03-02T12:23:51;1.40;;;1.30;;
30519;SDS011;17300;50.374;8.006;2024-03-02T12:26:17;1.00;;;0.90;;
30519;SDS011;17300;50.374;8.006;2024-03-02T12:28:44;0.90;;;0.90;;
30519;SDS011;17300;50.374;8.006;2024-03-02T12:31:13;1.30;;;1.20;;
30519;SDS011;17300;50.374;8.006;2024-03-02T12:33:41;1.10;;;0.95;;
30519;SDS011;17300;50.374;8.006;2024-03-02T12:36:09;1.58;;;1.10;;
30519;SDS011;17300;50.374;8.006;2024-03-02T12:38:37;1.20;;;1.10;;
30519;SDS011;17300;50.374;8.006;2024-03-02T12:41:03;1.20;;;1.10;;
30519;SDS011;17300;50.374;8.006;2024-03-02T12:43:31;0.90;;;0.90;;
30519;SDS011;17300;50.374;8.006;2024-03-02T12:45:58;1.00;;;1.00;;
30519;SDS011;17300;50.374;8.006;2024-03-02T12:48:25;1.38;;;1.27;;
30519;SDS011;17300;50.374;8.006;2024-03-02T12:50:53;1.27;;;1.17;;
30519;SDS011;17300;50.374;8.006;2024-03-02T12:53:21;1.08;;;1.00;;
30519;SDS011;17300;50.374;8.006;2024-03-02T12:55:47;0.90;;;0.90;;
30519;SDS011;17300;50.374;8.006;2024-03-02T12:58:18;1.20;;;1.10;;
30519;SDS011;17300;50.374;8.006;2024-03-02T13:00:46;1.20;;;0.95;;
30519;SDS011;17300;50.374;8.006;2024-03-02T13:03:12;0.80;;;0.80;;
30519;SDS011;17300;50.374;8.006;2024-03-02T13:05:40;0.95;;;0.95;;
30519;SDS011;17300;50.374;8.006;2024-03-02T13:08:08;1.00;;;1.00;;
30519;SDS011;17300;50.374;8.006;2024-03-02T13:10:35;1.23;;;1.13;;
30519;SDS011;17300;50.374;8.006;2024-03-02T13:13:02;1.13;;;1.05;;
30519;SDS011;17300;50.374;8.006;2024-03-02T13:15:28;0.80;;;0.80;;
30519;SDS011;17300;50.374;8.006;2024-03-02T13:17:58;0.70;;;0.70;;
30519;SDS011;17300;50.374;8.006;2024-03-02T13:20:29;0.80;;;0.80;;
30519;SDS011;17300;50.374;8.006;2024-03-02T13:22:57;0.85;;;0.65;;
30519;SDS011;17300;50.374;8.006;2024-03-02T13:25:25;0.60;;;0.60;;
30519;SDS011;17300;50.374;8.006;2024-03-02T13:27:52;0.75;;;0.73;;
30519;SDS011;17300;50.374;8.006;2024-03-02T13:30:18;0.80;;;0.80;;
30519;SDS011;17300;50.374;8.006;2024-03-02T13:32:45;0.80;;;0.80;;
30519;SDS011;17300;50.374;8.006;2024-03-02T13:35:12;1.38;;;0.70;;
30519;SDS011;17300;50.374;8.006;2024-03-02T13:37:39;0.80;;;0.77;;
30519;SDS011;17300;50.374;8.006;2024-03-02T13:40:06;0.73;;;0.73;;
30519;SDS011;17300;50.374;8.006;2024-03-02T13:42:39;0.60;;;0.60;;
30519;SDS011;17300;50.374;8.006;2024-03-02T13:45:06;0.85;;;0.85;;
30519;SDS011;17300;50.374;8.006;2024-03-02T13:47:33;1.05;;;0.98;;
30519;SDS011;17300;50.374;8.006;2024-03-02T13:49:59;0.88;;;0.88;;
30519;SDS011;17300;50.374;8.006;2024-03-02T13:52:27;0.80;;;0.80;;
30519;SDS011;17300;50.374;8.006;2024-03-02T13:54:55;1.10;;;1.00;;
30519;SDS011;17300;50.374;8.006;2024-03-02T13:57:21;1.00;;;1.00;;
30519;SDS011;17300;50.374;8.006;2024-03-02T13:59:50;0.80;;;0.80;;
30519;SDS011;17300;50.374;8.006;2024-03-02T14:02:18;2.00;;;1.40;;
30519;SDS011;17300;50.374;8.006;2024-03-02T14:04:45;1.35;;;1.25;;
30519;SDS011;17300;50.374;8.006;2024-03-02T14:07:11;1.38;;;1.17;;
30519;SDS011;17300;50.374;8.006;2024-03-02T14:09:38;1.38;;;1.27;;
30519;SDS011;17300;50.374;8.006;2024-03-02T14:12:05;1.10;;;1.10;;
30519;SDS011;17300;50.374;8.006;2024-03-02T14:14:32;0.85;;;0.85;;
30519;SDS011;17300;50.374;8.006;2024-03-02T14:17:00;1.10;;;1.00;;
30519;SDS011;17300;50.374;8.006;2024-03-02T14:19:29;1.05;;;1.05;;
30519;SDS011;17300;50.374;8.006;2024-03-02T14:21:56;0.73;;;0.73;;
30519;SDS011;17300;50.374;8.006;2024-03-02T14:24:22;0.98;;;0.80;;
30519;SDS011;17300;50.374;8.006;2024-03-02T14:26:50;0.98;;;0.98;;
30519;SDS011;17300;50.374;8.006;2024-03-02T14:29:17;0.77;;;0.77;;
30519;SDS011;17300;50.374;8.006;2024-03-02T14:31:44;0.90;;;0.90;;
30519;SDS011;17300;50.374;8.006;2024-03-02T14:34:14;1.80;;;1.00;;
30519;SDS011;17300;50.374;8.006;2024-03-02T14:36:41;0.98;;;0.80;;
30519;SDS011;17300;50.374;8.006;2024-03-02T14:39:09;0.75;;;0.75;;
30519;SDS011;17300;50.374;8.006;2024-03-02T14:41:35;0.80;;;0.80;;
30519;SDS011;17300;50.374;8.006;2024-03-02T14:44:02;0.80;;;0.80;;
30519;SDS011;17300;50.374;8.006;2024-03-02T14:46:29;0.70;;;0.70;;
30519;SDS011;17300;50.374;8.006;2024-03-02T14:48:56;1.00;;;1.00;;
30519;SDS011;17300;50.374;8.006;2024-03-02T14:51:24;0.93;;;0.73;;
30519;SDS011;17300;50.374;8.006;2024-03-02T14:53:51;0.90;;;0.90;;